Bookmark and Share
Track history (hours):
 

St. Louis Express

More information available from US FCC via Universal Licensing System.

Last reported at 2014-Apr-19 06:00 UTC. Time now 2014-Apr-19 09:27 UTC.
Position N 46°00' W 023°42'.

Type: Ship (hazmat cat D). MMSI: 367136680.

Wind from 020 at 8 knots

Waves 0.5 meters (2 feet), 3 second period

Barometer 1011.2 mb
Air temperature 14.0 ° C
Visibility: greater than 5.4 NM
Dewpoint 12.2 ° C
Water temperature 14.6 ° C

NotesDate/timePositionNaut miles runAvg speedWind from/ knotsBaromVisibWave heightAir tempDewpointWater temp
2014-Apr-19 06:00N 46°00' W 023°42'2221.7 020 / 81011.2 5.4 0.514.012.214.6
2014-Apr-19 05:00N 46°06' W 023°12'2424.0 020 / 81011.510.8 0.513.510.714.6
2014-Apr-19 04:00N 46°18' W 022°42'8621.5 340 / 51011.9 5.4 0.513.510.714.7
2014-Apr-19 00:00N 46°42' W 020°42'1413.7 1014.0
2014-Apr-18 23:00N 46°48' W 020°24'6020.0 090 / 91014.5 5.4 12.511.614.2
2014-Apr-18 20:00N 47°06' W 019°00'6019.9 200 / 121015.510.8 12.011.013.9
2014-Apr-18 17:00N 47°24' W 017°36'13021.7 090 / 111016.610.8 2.013.510.714.3
2014-Apr-18 11:00N 48°00' W 014°30'3316.3 110 / 161021.027.0 0.513.010.112.0
2014-Apr-18 09:00N 48°06' W 013°42'6320.9 110 / 131022.027.0 13.010.113.0
2014-Apr-18 06:00N 48°24' W 012°12'4020.1 070 / 101021.610.8 1.011.5 8.513.4
2014-Apr-18 04:00N 48°30' W 011°12'9423.5 030 / 151022.510.8 1.511.5 7.413.6
2014-Apr-18 00:00N 48°54' W 008°54'2423.7 1023.5
2014-Apr-17 23:00N 48°54' W 008°18'1211.8 350 / 161023.527.0 11.5 8.512.9
2014-Apr-17 22:00N 48°54' W 008°00'2424.4 340 / 171023.527.0 11.5 8.512.7
2014-Apr-17 21:00N 49°00' W 007°24'2019.7 340 / 161023.027.0 11.5 8.512.9
2014-Apr-17 20:00N 49°00' W 006°54'5819.3 350 / 191023.027.0 12.0 9.012.9
2014-Apr-17 17:00N 49°18' W 005°30'9420.8 330 / 201021.510.8 1.013.0 9.113.0
2014-Apr-17 12:28N 49°55' W 003°17'2121.2
2014-Apr-17 11:29N 50°02' W 002°46'1819.4
2014-Apr-17 10:33N 50°09' W 002°20'1817.7
2014-Apr-17 09:33N 50°16' W 001°55'1717.0
2014-Apr-17 08:33N 50°21' W 001°30'1717.3
2014-Apr-17 07:33N 50°30' W 001°06'1312.8
2014-Apr-17 06:34N 50°41' W 000°57'1414.4
2014-Apr-17 05:33N 50°47' W 001°18'9 9.2
2014-Apr-17 04:33N 50°54' W 001°26'1 1.3
2014-Apr-17 03:33N 50°54' W 001°28'0 0.0
2014-Apr-17 02:33N 50°54' W 001°28'0 0.0
2014-Apr-17 01:33N 50°54' W 001°28'0 0.0
2014-Apr-17 00:33N 50°54' W 001°28'0 0.0
2014-Apr-16 23:33N 50°54' W 001°28'0 0.0
2014-Apr-16 22:33N 50°54' W 001°28'0 0.0
2014-Apr-16 21:33N 50°54' W 001°28'0 0.0
2014-Apr-16 20:33N 50°54' W 001°28'0 0.0
2014-Apr-16 19:33N 50°54' W 001°28'0 0.0
2014-Apr-16 18:33N 50°54' W 001°28'0 0.0
2014-Apr-16 17:33N 50°54' W 001°28'0 0.0
2014-Apr-16 16:33N 50°54' W 001°28'0 0.0
2014-Apr-16 15:33N 50°54' W 001°28'0 0.1
2014-Apr-16 14:33N 50°54' W 001°28'7 7.1
2014-Apr-16 13:33N 50°50' W 001°19'1010.1
2014-Apr-16 12:33N 50°45' W 001°05'1110.8
2014-Apr-16 11:33N 50°36' W 000°54'2 2.4
2014-Apr-16 10:33N 50°34' W 000°52'6 5.5
2014-Apr-16 09:33N 50°29' W 000°51'2 2.2
2014-Apr-16 08:33N 50°28' W 000°54'3 2.6
2014-Apr-16 07:33N 50°28' W 000°58'2 2.0
2014-Apr-16 06:33N 50°28' W 001°02'1 0.5
2014-Apr-16 05:33N 50°28' W 001°02'1 1.4
2014-Apr-16 04:33N 50°28' W 001°00'3 2.8
2014-Apr-16 03:33N 50°29' W 000°56'3 3.3
2014-Apr-16 02:33N 50°30' W 000°51'4 3.8
2014-Apr-16 01:33N 50°31' W 000°45'1616.1
2014-Apr-16 00:33N 50°31' W 000°20'1919.1
2014-Apr-15 23:33N 50°33' E 000°10'1818.1
2014-Apr-15 22:33N 50°40' E 000°36'1817.9
2014-Apr-15 21:33N 50°49' E 001°01'2019.9
2014-Apr-15 20:33N 51°00' E 001°27'2222.3
2014-Apr-15 19:33N 51°17' E 001°51'2120.5
2014-Apr-15 18:34N 51°34' E 002°07'4518.6
2014-Apr-15 16:07N 52°09' E 002°55'1117.4
2014-Apr-15 15:30N 52°18' E 003°05'2017.1
2014-Apr-15 14:19N 52°34' E 003°26'3211.7
2014-Apr-15 11:33N 52°59' E 003°60'1919.4
2014-Apr-15 10:34N 53°12' E 004°23'2119.4
2014-Apr-15 09:30N 53°29' E 004°42'1718.8
2014-Apr-15 08:34N 53°35' E 005°09'1817.8
2014-Apr-15 07:34N 53°41' E 005°37'1817.4
2014-Apr-15 06:33N 53°47' E 006°06'5217.5
2014-Apr-15 03:34N 53°59' E 007°32'1111.3
2014-Apr-15 02:34N 53°53' E 007°48'1313.4
2014-Apr-15 01:34N 53°48' E 008°09'1515.3
2014-Apr-15 00:34N 53°37' E 008°28'3 3.1
2014-Apr-14 23:33N 53°35' E 008°32'0 0.0
2014-Apr-14 22:33N 53°35' E 008°32'0 0.0
2014-Apr-14 21:33N 53°35' E 008°32'0 0.0
2014-Apr-14 20:33N 53°35' E 008°32'0 0.0
2014-Apr-14 19:33N 53°35' E 008°32'0 0.0
2014-Apr-14 18:33N 53°35' E 008°32'0 0.0
2014-Apr-14 17:33N 53°35' E 008°32'0 0.0
2014-Apr-14 16:33N 53°35' E 008°32'0 0.0
2014-Apr-14 15:33N 53°35' E 008°32'0 0.0
2014-Apr-14 14:33N 53°35' E 008°32'0 0.0
2014-Apr-14 13:33N 53°35' E 008°32'0 0.0
2014-Apr-14 11:33N 53°35' E 008°32'0 0.0
2014-Apr-14 10:33N 53°35' E 008°32'0 0.0
2014-Apr-14 09:33N 53°35' E 008°32'0 0.0
2014-Apr-14 08:33N 53°35' E 008°32'0 0.0
2014-Apr-14 07:33N 53°35' E 008°32'0 0.0
2014-Apr-14 06:33N 53°35' E 008°32'0 0.0
2014-Apr-14 05:33N 53°35' E 008°32'21 3.0
2014-Apr-13 22:34N 53°49' E 008°06'1211.8
2014-Apr-13 21:33N 53°52' E 007°47'3 2.6
2014-Apr-13 20:33N 53°52' E 007°51'9 8.4
2014-Apr-13 19:33N 53°54' E 007°37'1918.8
2014-Apr-13 18:33N 53°51' E 007°06'2220.6
2014-Apr-13 17:29N 53°46' E 006°29'1920.3
2014-Apr-13 16:33N 53°41' E 005°59'2020.2
2014-Apr-13 15:33N 53°35' E 005°26'2020.1
2014-Apr-13 14:33N 53°28' E 004°55'1919.0
2014-Apr-13 13:32N 53°13' E 004°34'2419.3
2014-Apr-13 12:18N 52°52' E 004°14'1419.1
2014-Apr-13 11:33N 52°41' E 004°00'1919.0
2014-Apr-13 10:33N 52°27' E 003°39'4017.4
2014-Apr-13 08:16N 51°53' E 003°05'1215.4
2014-Apr-13 07:28N 51°42' E 003°14'1112.4
2014-Apr-13 06:33N 51°32' E 003°06'9 9.2
2014-Apr-13 05:34N 51°25' E 003°15'1615.5
2014-Apr-13 04:34N 51°26' E 003°40'1111.5
2014-Apr-13 03:34N 51°25' E 003°58'1010.2
2014-Apr-13 02:33N 51°22' E 004°13'3 2.6
2014-Apr-13 01:33N 51°20' E 004°17'0 0.0
2014-Apr-13 00:34N 51°20' E 004°17'0 0.0
2014-Apr-12 23:33N 51°20' E 004°17'0 0.0
2014-Apr-12 22:33N 51°20' E 004°17'0 0.0
2014-Apr-12 21:33N 51°20' E 004°17'0 0.0
2014-Apr-12 20:34N 51°20' E 004°17'0 0.0
2014-Apr-12 19:33N 51°20' E 004°17'0 0.0
2014-Apr-12 18:33N 51°20' E 004°17'0 0.0
2014-Apr-12 17:33N 51°20' E 004°17'0 0.0
2014-Apr-12 16:33N 51°20' E 004°17'0 0.0
2014-Apr-12 15:34N 51°20' E 004°17'0 0.0
2014-Apr-12 14:34N 51°20' E 004°17'0 0.0
2014-Apr-12 13:34N 51°20' E 004°17'0 0.0
2014-Apr-12 12:34N 51°20' E 004°17'0 0.0
2014-Apr-12 11:34N 51°20' E 004°17'0 0.0
2014-Apr-12 10:34N 51°20' E 004°17'0 0.0
2014-Apr-12 09:33N 51°20' E 004°17'0 0.0
2014-Apr-12 08:33N 51°20' E 004°17'0 0.0
2014-Apr-12 07:33N 51°20' E 004°17'0 0.0
2014-Apr-12 06:34N 51°20' E 004°17'0 0.0
2014-Apr-12 05:34N 51°20' E 004°17'0 0.0
2014-Apr-12 04:33N 51°20' E 004°17'1 1.4
2014-Apr-12 03:34N 51°21' E 004°15'8 7.9
2014-Apr-12 02:34N 51°23' E 004°03'6 6.5
2014-Apr-12 01:34N 51°21' E 003°53'1010.3
2014-Apr-12 00:33N 51°26' E 003°38'1414.0
2014-Apr-11 23:33N 51°24' E 003°16'1817.7
2014-Apr-11 22:33N 51°22' E 002°48'1312.6
2014-Apr-11 21:33N 51°22' E 002°28'1919.0
2014-Apr-11 20:34N 51°12' E 002°02'1918.9
2014-Apr-11 19:33N 50°60' E 001°38'1818.0
2014-Apr-11 18:33N 50°44' E 001°24'1918.0
2014-Apr-11 17:30N 50°31' E 001°03'1818.7
2014-Apr-11 16:33N 50°24' E 000°38'1918.8
2014-Apr-11 15:33N 50°20' E 000°08'4418.1
2014-Apr-11 13:06N 50°11' W 000°59'917.1
2014-Apr-11 12:33N 50°08' W 001°13'28418.2
2014-Apr-10 21:00N 49°00' W 008°18'21519.5 340 / 61024.027.0 11.0 7.913.6
2014-Apr-10 10:00N 48°36' W 013°42'8 7.9 1025.527.0 14.510.713.8
2014-Apr-10 09:00N 48°36' W 013°54'4020.1 1025.527.0 15.0 9.213.8
2014-Apr-10 07:00N 48°30' W 014°54'4020.1 210 / 31025.027.0 14.0 6.813.9
2014-Apr-10 05:00N 48°24' W 015°54'1717.0 200 / 41024.510.8 1.013.5 7.414.1
2014-Apr-10 04:00N 48°18' W 016°18'2020.0 200 / 41024.210.8 1.013.5 8.513.8
2014-Apr-10 03:00N 48°18' W 016°48'5719.1 270 / 71024.810.8 2.014.0 9.114.1
2014-Apr-10 00:00N 48°06' W 018°12'4221.0 1025.5
2014-Apr-09 22:00N 47°54' W 019°12'7418.4 210 / 91025.527.0 13.0 9.113.8
2014-Apr-09 18:00N 47°42' W 021°00'9018.1 190 / 151023.710.8 4.014.0 8.014.1
2014-Apr-09 13:00N 47°12' W 023°06'8019.9 1023.010.8
2014-Apr-09 09:00N 46°54' W 025°00'3517.5 190 / 161021.010.8 0.512.5 9.613.6
2014-Apr-09 07:00N 46°42' W 025°48'2120.6 190 / 201019.310.8 4.012.5 9.613.9
2014-Apr-09 06:00N 46°42' W 026°18'   200 / 181019.0 5.4 4.012.5 9.613.9

Dump ship's entire track history

sailing weather and tide predictions

St. Louis Express — WDD3825 — position and weather